sensor_id;sensor_type;location;lat;lon;timestamp;temperature;humidity
16060;DHT22;8134;49.552;7.632;2022-11-14T08:40:41;7.60;99.90
16060;DHT22;8134;49.552;7.632;2022-11-14T08:43:07;7.70;99.90
16060;DHT22;8134;49.552;7.632;2022-11-14T08:45:33;7.60;99.90
16060;DHT22;8134;49.552;7.632;2022-11-14T08:47:59;7.60;99.90
16060;DHT22;8134;49.552;7.632;2022-11-14T08:50:25;7.60;99.90
16060;DHT22;8134;49.552;7.632;2022-11-14T08:52:51;7.50;99.90
16060;DHT22;8134;49.552;7.632;2022-11-14T08:55:16;7.60;99.90
16060;DHT22;8134;49.552;7.632;2022-11-14T08:57:42;7.60;99.90
16060;DHT22;8134;49.552;7.632;2022-11-14T09:00:08;7.60;99.90
16060;DHT22;8134;49.552;7.632;2022-11-14T09:02:33;7.70;99.90
16060;DHT22;8134;49.552;7.632;2022-11-14T09:04:59;7.70;99.90
16060;DHT22;8134;49.552;7.632;2022-11-14T09:07:24;7.80;99.90
16060;DHT22;8134;49.552;7.632;2022-11-14T09:09:50;7.90;99.90
16060;DHT22;8134;49.552;7.632;2022-11-14T09:12:15;7.90;99.90
16060;DHT22;8134;49.552;7.632;2022-11-14T09:14:42;8.00;99.90
16060;DHT22;8134;49.552;7.632;2022-11-14T09:17:07;8.10;99.90
16060;DHT22;8134;49.552;7.632;2022-11-14T09:19:33;8.10;99.90
16060;DHT22;8134;49.552;7.632;2022-11-14T09:21:58;8.10;99.90
16060;DHT22;8134;49.552;7.632;2022-11-14T09:24:24;8.10;99.90
16060;DHT22;8134;49.552;7.632;2022-11-14T09:26:50;8.10;99.90
16060;DHT22;8134;49.552;7.632;2022-11-14T09:29:15;8.10;99.90
16060;DHT22;8134;49.552;7.632;2022-11-14T09:31:43;8.20;99.90
16060;DHT22;8134;49.552;7.632;2022-11-14T09:34:09;8.10;99.90
16060;DHT22;8134;49.552;7.632;2022-11-14T09:36:34;8.20;99.90
16060;DHT22;8134;49.552;7.632;2022-11-14T09:39:00;8.20;99.90
16060;DHT22;8134;49.552;7.632;2022-11-14T09:41:29;8.30;99.90
16060;DHT22;8134;49.552;7.632;2022-11-14T09:44:05;8.40;99.90
16060;DHT22;8134;49.552;7.632;2022-11-14T09:46:42;8.40;99.90
16060;DHT22;8134;49.552;7.632;2022-11-14T09:49:44;8.50;99.90
16060;DHT22;8134;49.552;7.632;2022-11-14T09:54:51;8.60;99.90
16060;DHT22;8134;49.552;7.632;2022-11-14T09:57:18;8.60;99.90
16060;DHT22;8134;49.552;7.632;2022-11-14T09:59:44;8.60;99.90
16060;DHT22;8134;49.552;7.632;2022-11-14T10:04:42;8.70;99.90
16060;DHT22;8134;49.552;7.632;2022-11-14T10:12:27;8.70;99.90
16060;DHT22;8134;49.552;7.632;2022-11-14T10:22:49;8.70;99.90
16060;DHT22;8134;49.552;7.632;2022-11-14T10:25:29;8.70;99.90
16060;DHT22;8134;49.552;7.632;2022-11-14T10:28:15;8.80;99.90
16060;DHT22;8134;49.552;7.632;2022-11-14T10:30:55;8.80;99.90
16060;DHT22;8134;49.552;7.632;2022-11-14T10:35:57;8.70;99.90
16060;DHT22;8134;49.552;7.632;2022-11-14T10:38:28;8.80;99.90
16060;DHT22;8134;49.552;7.632;2022-11-14T10:40:58;8.80;99.90
16060;DHT22;8134;49.552;7.632;2022-11-14T10:43:26;8.90;99.90
16060;DHT22;8134;49.552;7.632;2022-11-14T10:45:56;8.90;99.90
16060;DHT22;8134;49.552;7.632;2022-11-14T10:48:28;8.90;99.90
16060;DHT22;8134;49.552;7.632;2022-11-14T10:50:56;8.90;99.90
16060;DHT22;8134;49.552;7.632;2022-11-14T10:56:09;9.00;99.90
16060;DHT22;8134;49.552;7.632;2022-11-14T10:58:35;9.00;99.90
16060;DHT22;8134;49.552;7.632;2022-11-14T11:03:44;9.20;99.90
16060;DHT22;8134;49.552;7.632;2022-11-14T11:06:23;9.30;99.90
16060;DHT22;8134;49.552;7.632;2022-11-14T11:08:48;9.30;99.90
16060;DHT22;8134;49.552;7.632;2022-11-14T11:11:33;9.30;99.90
16060;DHT22;8134;49.552;7.632;2022-11-14T11:13:59;9.40;99.90
16060;DHT22;8134;49.552;7.632;2022-11-14T11:16:26;9.50;99.90
16060;DHT22;8134;49.552;7.632;2022-11-14T11:18:52;9.60;99.90
16060;DHT22;8134;49.552;7.632;2022-11-14T11:21:18;9.60;99.90
16060;DHT22;8134;49.552;7.632;2022-11-14T11:23:49;9.70;99.90
16060;DHT22;8134;49.552;7.632;2022-11-14T11:26:19;9.70;99.90
16060;DHT22;8134;49.552;7.632;2022-11-14T11:28:59;9.60;99.90
16060;DHT22;8134;49.552;7.632;2022-11-14T11:31:25;9.60;99.90
16060;DHT22;8134;49.552;7.632;2022-11-14T11:33:50;9.60;99.90
16060;DHT22;8134;49.552;7.632;2022-11-14T11:36:19;9.70;99.90
16060;DHT22;8134;49.552;7.632;2022-11-14T11:38:46;9.70;99.90
16060;DHT22;8134;49.552;7.632;2022-11-14T11:41:20;9.80;99.90
16060;DHT22;8134;49.552;7.632;2022-11-14T11:43:49;9.90;99.90
16060;DHT22;8134;49.552;7.632;2022-11-14T11:46:17;10.00;99.90
16060;DHT22;8134;49.552;7.632;2022-11-14T11:48:45;10.00;99.90
16060;DHT22;8134;49.552;7.632;2022-11-14T11:51:14;9.90;99.90
16060;DHT22;8134;49.552;7.632;2022-11-14T11:53:46;9.90;99.90
16060;DHT22;8134;49.552;7.632;2022-11-14T11:56:24;9.80;99.90
16060;DHT22;8134;49.552;7.632;2022-11-14T11:58:51;9.80;99.90
16060;DHT22;8134;49.552;7.632;2022-11-14T12:01:19;9.70;99.90
16060;DHT22;8134;49.552;7.632;2022-11-14T12:03:48;9.70;99.90
16060;DHT22;8134;49.552;7.632;2022-11-14T12:06:16;9.80;99.90
16060;DHT22;8134;49.552;7.632;2022-11-14T12:09:05;9.80;99.90
16060;DHT22;8134;49.552;7.632;2022-11-14T12:11:29;9.90;99.90
16060;DHT22;8134;49.552;7.632;2022-11-14T12:17:01;9.90;99.90
16060;DHT22;8134;49.552;7.632;2022-11-14T12:30:00;10.00;99.90
16060;DHT22;8134;49.552;7.632;2022-11-14T12:32:32;10.00;99.90
16060;DHT22;8134;49.552;7.632;2022-11-14T12:35:05;10.00;99.90
16060;DHT22;8134;49.552;7.632;2022-11-14T12:37:32;10.00;99.90
16060;DHT22;8134;49.552;7.632;2022-11-14T12:40:04;9.90;99.90
16060;DHT22;8134;49.552;7.632;2022-11-14T12:42:31;9.90;99.90
16060;DHT22;8134;49.552;7.632;2022-11-14T12:44:57;9.90;99.90
16060;DHT22;8134;49.552;7.632;2022-11-14T12:47:25;9.90;99.90
16060;DHT22;8134;49.552;7.632;2022-11-14T12:55:01;10.00;99.90
16060;DHT22;8134;49.552;7.632;2022-11-14T12:57:28;10.00;99.90
16060;DHT22;8134;49.552;7.632;2022-11-14T13:00:12;10.00;99.90
16060;DHT22;8134;49.552;7.632;2022-11-14T13:05:18;10.00;99.90
16060;DHT22;8134;49.552;7.632;2022-11-14T13:10:27;10.10;99.90
16060;DHT22;8134;49.552;7.632;2022-11-14T13:15:48;10.10;99.90
16060;DHT22;8134;49.552;7.632;2022-11-14T13:18:32;10.20;99.90
16060;DHT22;8134;49.552;7.632;2022-11-14T13:21:18;10.20;99.90
16060;DHT22;8134;49.552;7.632;2022-11-14T13:24:03;10.20;99.90
16060;DHT22;8134;49.552;7.632;2022-11-14T13:28:54;10.00;99.90
16060;DHT22;8134;49.552;7.632;2022-11-14T13:31:22;10.20;99.90
16060;DHT22;8134;49.552;7.632;2022-11-14T13:33:54;10.20;99.90
16060;DHT22;8134;49.552;7.632;2022-11-14T13:51:52;10.30;99.90
16060;DHT22;8134;49.552;7.632;2022-11-14T13:54:18;10.30;99.90
16060;DHT22;8134;49.552;7.632;2022-11-14T13:59:37;10.30;99.90
16060;DHT22;8134;49.552;7.632;2022-11-14T14:10:27;10.30;99.90
16060;DHT22;8134;49.552;7.632;2022-11-14T14:13:00;10.30;99.90
16060;DHT22;8134;49.552;7.632;2022-11-14T14:25:56;10.40;99.90
16060;DHT22;8134;49.552;7.632;2022-11-14T14:30:59;10.50;99.90
16060;DHT22;8134;49.552;7.632;2022-11-14T14:33:25;10.40;99.90
16060;DHT22;8134;49.552;7.632;2022-11-14T14:35:51;10.40;99.90
16060;DHT22;8134;49.552;7.632;2022-11-14T14:38:21;10.50;99.90
16060;DHT22;8134;49.552;7.632;2022-11-14T14:40:47;10.40;99.90
16060;DHT22;8134;49.552;7.632;2022-11-14T14:43:20;10.40;99.90
16060;DHT22;8134;49.552;7.632;2022-11-14T14:45:47;10.40;99.90
16060;DHT22;8134;49.552;7.632;2022-11-14T14:48:17;10.50;99.90
16060;DHT22;8134;49.552;7.632;2022-11-14T14:50:49;10.40;99.90
16060;DHT22;8134;49.552;7.632;2022-11-14T14:53:25;10.40;99.90
16060;DHT22;8134;49.552;7.632;2022-11-14T14:55:52;10.40;99.90
16060;DHT22;8134;49.552;7.632;2022-11-14T15:01:02;10.40;99.90
16060;DHT22;8134;49.552;7.632;2022-11-14T15:03:30;10.40;99.90
16060;DHT22;8134;49.552;7.632;2022-11-14T15:06:17;10.40;99.90
16060;DHT22;8134;49.552;7.632;2022-11-14T15:08:42;10.40;99.90
16060;DHT22;8134;49.552;7.632;2022-11-14T15:11:08;10.30;99.90
16060;DHT22;8134;49.552;7.632;2022-11-14T15:13:34;10.40;99.90
16060;DHT22;8134;49.552;7.632;2022-11-14T15:16:00;10.50;99.90
16060;DHT22;8134;49.552;7.632;2022-11-14T15:18:30;10.40;99.90
16060;DHT22;8134;49.552;7.632;2022-11-14T15:24:35;10.50;99.90
16060;DHT22;8134;49.552;7.632;2022-11-14T15:26:43;10.50;99.90
16060;DHT22;8134;49.552;7.632;2022-11-14T15:31:43;10.50;99.90
16060;DHT22;8134;49.552;7.632;2022-11-14T15:34:22;10.50;99.90
16060;DHT22;8134;49.552;7.632;2022-11-14T15:39:33;10.50;99.90
16060;DHT22;8134;49.552;7.632;2022-11-14T15:44:42;10.50;99.90
16060;DHT22;8134;49.552;7.632;2022-11-14T15:47:10;10.60;99.90
16060;DHT22;8134;49.552;7.632;2022-11-14T15:49:36;10.60;99.90
16060;DHT22;8134;49.552;7.632;2022-11-14T15:52:02;10.60;99.90
16060;DHT22;8134;49.552;7.632;2022-11-14T15:54:34;10.60;99.90
16060;DHT22;8134;49.552;7.632;2022-11-14T15:57:05;10.60;99.90
16060;DHT22;8134;49.552;7.632;2022-11-14T15:59:30;10.60;99.90
16060;DHT22;8134;49.552;7.632;2022-11-14T16:01:58;10.60;99.90
16060;DHT22;8134;49.552;7.632;2022-11-14T16:04:27;10.70;99.90
16060;DHT22;8134;49.552;7.632;2022-11-14T16:06:53;10.70;99.90
16060;DHT22;8134;49.552;7.632;2022-11-14T16:09:19;10.70;99.90
16060;DHT22;8134;49.552;7.632;2022-11-14T16:11:45;10.90;99.90
16060;DHT22;8134;49.552;7.632;2022-11-14T16:14:11;10.70;99.90
16060;DHT22;8134;49.552;7.632;2022-11-14T16:16:37;10.70;99.90
16060;DHT22;8134;49.552;7.632;2022-11-14T16:19:03;10.80;99.90
16060;DHT22;8134;49.552;7.632;2022-11-14T16:21:28;10.70;99.90
16060;DHT22;8134;49.552;7.632;2022-11-14T16:23:54;10.70;99.90
16060;DHT22;8134;49.552;7.632;2022-11-14T16:26:19;10.80;99.90
16060;DHT22;8134;49.552;7.632;2022-11-14T16:28:45;10.80;99.90
16060;DHT22;8134;49.552;7.632;2022-11-14T16:31:11;10.80;99.90
16060;DHT22;8134;49.552;7.632;2022-11-14T16:33:37;10.70;99.90
16060;DHT22;8134;49.552;7.632;2022-11-14T16:36:02;10.60;99.90
16060;DHT22;8134;49.552;7.632;2022-11-14T16:38:28;10.60;99.90
16060;DHT22;8134;49.552;7.632;2022-11-14T16:40:53;10.50;99.90
16060;DHT22;8134;49.552;7.632;2022-11-14T16:43:19;10.40;99.90
16060;DHT22;8134;49.552;7.632;2022-11-14T16:45:45;10.30;99.90
16060;DHT22;8134;49.552;7.632;2022-11-14T16:48:11;10.30;99.90
16060;DHT22;8134;49.552;7.632;2022-11-14T16:50:37;10.50;99.90
16060;DHT22;8134;49.552;7.632;2022-11-14T16:53:02;10.30;99.90
16060;DHT22;8134;49.552;7.632;2022-11-14T16:55:28;10.40;99.90
16060;DHT22;8134;49.552;7.632;2022-11-14T16:57:53;10.50;99.90
16060;DHT22;8134;49.552;7.632;2022-11-14T17:00:19;10.60;99.90
16060;DHT22;8134;49.552;7.632;2022-11-14T17:02:44;10.60;99.90
16060;DHT22;8134;49.552;7.632;2022-11-14T17:05:11;10.40;99.90
16060;DHT22;8134;49.552;7.632;2022-11-14T17:07:36;10.70;99.90
16060;DHT22;8134;49.552;7.632;2022-11-14T17:10:02;10.40;99.90
16060;DHT22;8134;49.552;7.632;2022-11-14T17:12:28;10.30;99.90
16060;DHT22;8134;49.552;7.632;2022-11-14T17:14:53;10.30;99.90
16060;DHT22;8134;49.552;7.632;2022-11-14T17:17:19;10.30;99.90
16060;DHT22;8134;49.552;7.632;2022-11-14T17:19:45;10.20;99.90
16060;DHT22;8134;49.552;7.632;2022-11-14T17:22:11;10.30;99.90
16060;DHT22;8134;49.552;7.632;2022-11-14T17:24:37;10.10;99.90
16060;DHT22;8134;49.552;7.632;2022-11-14T17:27:02;10.20;99.90
16060;DHT22;8134;49.552;7.632;2022-11-14T17:29:27;10.20;99.90
16060;DHT22;8134;49.552;7.632;2022-11-14T17:31:53;10.20;99.90
16060;DHT22;8134;49.552;7.632;2022-11-14T17:34:18;10.20;99.90
16060;DHT22;8134;49.552;7.632;2022-11-14T17:36:44;10.10;99.90
16060;DHT22;8134;49.552;7.632;2022-11-14T17:39:09;10.10;99.90
16060;DHT22;8134;49.552;7.632;2022-11-14T17:41:35;10.10;99.90
16060;DHT22;8134;49.552;7.632;2022-11-14T17:44:01;10.00;99.90
16060;DHT22;8134;49.552;7.632;2022-11-14T17:46:28;10.00;99.90
16060;DHT22;8134;49.552;7.632;2022-11-14T17:48:53;10.10;99.90
16060;DHT22;8134;49.552;7.632;2022-11-14T17:51:19;10.00;99.90
16060;DHT22;8134;49.552;7.632;2022-11-14T17:53:44;10.10;99.90
16060;DHT22;8134;49.552;7.632;2022-11-14T17:56:14;10.10;99.90
16060;DHT22;8134;49.552;7.632;2022-11-14T17:58:39;10.10;99.90
16060;DHT22;8134;49.552;7.632;2022-11-14T18:01:08;10.10;99.90
16060;DHT22;8134;49.552;7.632;2022-11-14T18:03:34;10.10;99.90
16060;DHT22;8134;49.552;7.632;2022-11-14T18:06:03;10.10;99.90
16060;DHT22;8134;49.552;7.632;2022-11-14T18:08:29;10.10;99.90
16060;DHT22;8134;49.552;7.632;2022-11-14T18:10:58;10.20;99.90
16060;DHT22;8134;49.552;7.632;2022-11-14T18:13:23;10.20;99.90
16060;DHT22;8134;49.552;7.632;2022-11-14T18:15:49;10.20;99.90
16060;DHT22;8134;49.552;7.632;2022-11-14T18:18:14;10.40;99.90
16060;DHT22;8134;49.552;7.632;2022-11-14T18:20:39;10.40;99.90
16060;DHT22;8134;49.552;7.632;2022-11-14T18:23:05;10.40;99.90
16060;DHT22;8134;49.552;7.632;2022-11-14T18:25:30;10.40;99.90
16060;DHT22;8134;49.552;7.632;2022-11-14T18:27:56;10.50;99.90
16060;DHT22;8134;49.552;7.632;2022-11-14T18:30:21;10.60;99.90
16060;DHT22;8134;49.552;7.632;2022-11-14T18:32:47;10.60;99.90
16060;DHT22;8134;49.552;7.632;2022-11-14T18:35:12;10.80;99.90
16060;DHT22;8134;49.552;7.632;2022-11-14T18:37:38;10.80;99.90
16060;DHT22;8134;49.552;7.632;2022-11-14T18:40:03;11.00;99.90
16060;DHT22;8134;49.552;7.632;2022-11-14T18:42:29;11.00;99.90
16060;DHT22;8134;49.552;7.632;2022-11-14T18:44:54;11.10;99.90
16060;DHT22;8134;49.552;7.632;2022-11-14T18:47:20;11.10;99.90
16060;DHT22;8134;49.552;7.632;2022-11-14T18:49:45;11.30;99.90
16060;DHT22;8134;49.552;7.632;2022-11-14T18:52:11;11.30;99.90
16060;DHT22;8134;49.552;7.632;2022-11-14T18:54:36;11.30;99.90
16060;DHT22;8134;49.552;7.632;2022-11-14T18:57:03;11.30;99.90
16060;DHT22;8134;49.552;7.632;2022-11-14T18:59:28;11.30;99.90
16060;DHT22;8134;49.552;7.632;2022-11-14T19:01:54;11.40;99.90
16060;DHT22;8134;49.552;7.632;2022-11-14T19:04:19;11.50;99.90
16060;DHT22;8134;49.552;7.632;2022-11-14T19:06:45;11.40;99.90
16060;DHT22;8134;49.552;7.632;2022-11-14T19:09:12;11.40;99.90
16060;DHT22;8134;49.552;7.632;2022-11-14T19:11:40;11.40;99.90
16060;DHT22;8134;49.552;7.632;2022-11-14T19:14:24;11.40;99.90
16060;DHT22;8134;49.552;7.632;2022-11-14T19:16:50;11.30;99.90
16060;DHT22;8134;49.552;7.632;2022-11-14T19:19:15;11.30;99.90
16060;DHT22;8134;49.552;7.632;2022-11-14T19:21:41;11.40;99.90
16060;DHT22;8134;49.552;7.632;2022-11-14T19:24:06;11.40;99.90
16060;DHT22;8134;49.552;7.632;2022-11-14T19:26:32;11.50;99.90
16060;DHT22;8134;49.552;7.632;2022-11-14T19:29:05;11.50;99.90
16060;DHT22;8134;49.552;7.632;2022-11-14T19:31:31;11.60;99.90
16060;DHT22;8134;49.552;7.632;2022-11-14T19:33:57;11.70;99.90
16060;DHT22;8134;49.552;7.632;2022-11-14T19:36:23;11.70;99.90
16060;DHT22;8134;49.552;7.632;2022-11-14T19:38:52;11.70;99.90
16060;DHT22;8134;49.552;7.632;2022-11-14T19:41:18;11.80;99.90
16060;DHT22;8134;49.552;7.632;2022-11-14T19:43:47;11.70;99.90
16060;DHT22;8134;49.552;7.632;2022-11-14T19:46:13;11.70;99.90
16060;DHT22;8134;49.552;7.632;2022-11-14T19:48:41;11.80;99.90
16060;DHT22;8134;49.552;7.632;2022-11-14T19:51:10;11.70;99.90
16060;DHT22;8134;49.552;7.632;2022-11-14T19:53:36;11.60;99.90
16060;DHT22;8134;49.552;7.632;2022-11-14T19:56:06;11.60;99.90
16060;DHT22;8134;49.552;7.632;2022-11-14T19:58:36;11.70;99.90
16060;DHT22;8134;49.552;7.632;2022-11-14T20:01:02;11.70;99.90
16060;DHT22;8134;49.552;7.632;2022-11-14T20:03:28;11.70;99.90
16060;DHT22;8134;49.552;7.632;2022-11-14T20:05:54;11.90;99.90
16060;DHT22;8134;49.552;7.632;2022-11-14T20:08:19;11.80;99.90
16060;DHT22;8134;49.552;7.632;2022-11-14T20:13:20;11.90;99.90
16060;DHT22;8134;49.552;7.632;2022-11-14T20:15:45;11.90;99.90
16060;DHT22;8134;49.552;7.632;2022-11-14T20:18:11;12.00;99.90
16060;DHT22;8134;49.552;7.632;2022-11-14T20:20:36;12.00;99.90
16060;DHT22;8134;49.552;7.632;2022-11-14T20:23:02;12.00;99.90
16060;DHT22;8134;49.552;7.632;2022-11-14T20:25:28;12.00;99.90
16060;DHT22;8134;49.552;7.632;2022-11-14T20:27:53;12.00;99.90
16060;DHT22;8134;49.552;7.632;2022-11-14T20:30:19;12.00;99.90
16060;DHT22;8134;49.552;7.632;2022-11-14T20:32:44;12.00;99.90
16060;DHT22;8134;49.552;7.632;2022-11-14T20:35:10;12.00;99.90
16060;DHT22;8134;49.552;7.632;2022-11-14T20:37:35;11.90;99.90
16060;DHT22;8134;49.552;7.632;2022-11-14T20:40:01;11.90;99.90
16060;DHT22;8134;49.552;7.632;2022-11-14T20:42:26;11.90;99.90
16060;DHT22;8134;49.552;7.632;2022-11-14T20:44:52;11.90;99.90
16060;DHT22;8134;49.552;7.632;2022-11-14T20:47:17;11.90;99.90
16060;DHT22;8134;49.552;7.632;2022-11-14T20:49:43;11.90;99.90
16060;DHT22;8134;49.552;7.632;2022-11-14T20:52:10;11.90;99.90
16060;DHT22;8134;49.552;7.632;2022-11-14T20:54:36;11.90;99.90
16060;DHT22;8134;49.552;7.632;2022-11-14T20:57:01;11.90;99.90
16060;DHT22;8134;49.552;7.632;2022-11-14T20:59:27;12.00;99.90
16060;DHT22;8134;49.552;7.632;2022-11-14T21:01:52;12.00;99.90
16060;DHT22;8134;49.552;7.632;2022-11-14T21:04:18;12.10;99.90
16060;DHT22;8134;49.552;7.632;2022-11-14T21:06:43;12.00;99.90
16060;DHT22;8134;49.552;7.632;2022-11-14T21:09:09;12.10;99.90
16060;DHT22;8134;49.552;7.632;2022-11-14T21:11:34;12.10;99.90
16060;DHT22;8134;49.552;7.632;2022-11-14T21:13:59;12.00;99.90
16060;DHT22;8134;49.552;7.632;2022-11-14T21:16:30;12.00;99.90
16060;DHT22;8134;49.552;7.632;2022-11-14T21:18:56;12.00;99.90
16060;DHT22;8134;49.552;7.632;2022-11-14T21:21:22;11.90;99.90
16060;DHT22;8134;49.552;7.632;2022-11-14T21:23:49;11.80;99.90
16060;DHT22;8134;49.552;7.632;2022-11-14T21:28:44;11.70;99.90
16060;DHT22;8134;49.552;7.632;2022-11-14T21:31:13;11.70;99.90
16060;DHT22;8134;49.552;7.632;2022-11-14T21:33:39;11.70;99.90
16060;DHT22;8134;49.552;7.632;2022-11-14T21:36:08;11.70;99.90
16060;DHT22;8134;49.552;7.632;2022-11-14T21:38:34;11.50;99.90
16060;DHT22;8134;49.552;7.632;2022-11-14T21:40:59;11.50;99.90
16060;DHT22;8134;49.552;7.632;2022-11-14T21:43:25;11.40;99.90
16060;DHT22;8134;49.552;7.632;2022-11-14T21:45:53;11.40;99.90
16060;DHT22;8134;49.552;7.632;2022-11-14T21:48:19;11.30;99.90
16060;DHT22;8134;49.552;7.632;2022-11-14T21:50:44;11.20;99.90
16060;DHT22;8134;49.552;7.632;2022-11-14T21:53:10;11.20;99.90
16060;DHT22;8134;49.552;7.632;2022-11-14T21:55:43;11.20;99.90
16060;DHT22;8134;49.552;7.632;2022-11-14T21:58:10;11.20;99.90
16060;DHT22;8134;49.552;7.632;2022-11-14T22:00:40;11.20;99.90
16060;DHT22;8134;49.552;7.632;2022-11-14T22:03:07;11.10;99.90
16060;DHT22;8134;49.552;7.632;2022-11-14T22:05:54;11.10;99.90
16060;DHT22;8134;49.552;7.632;2022-11-14T22:08:19;11.10;99.90
16060;DHT22;8134;49.552;7.632;2022-11-14T22:10:45;11.10;99.90
16060;DHT22;8134;49.552;7.632;2022-11-14T22:13:10;11.10;99.90
16060;DHT22;8134;49.552;7.632;2022-11-14T22:15:36;11.10;99.90
16060;DHT22;8134;49.552;7.632;2022-11-14T22:18:01;11.20;99.90
